Time;durP1;ratioP1;P1;durP2;ratioP2;P2;SDS_P1;SDS_P2;PMS_P1;PMS_P2;Temp;Humidity;BMP_temperature;BMP_pressure;BME280_temperature;BME280_humidity;BME280_pressure;Samples;Min_cycle;Max_cycle;Signal;HPM_P1;HPM_P2
2024/04/15 00:00:26;;;;;;;8.60;2.13;;;10.50;58.40;;;;;;5527581;26;20840;-64
2024/04/15 00:02:55;;;;;;;7.07;2.07;;;10.50;58.60;;;;;;5526531;26;20604;-66
2024/04/15 00:05:20;;;;;;;3.23;1.57;;;10.50;58.80;;;;;;5526778;26;20460;-64
2024/04/15 00:07:51;;;;;;;7.33;1.87;;;10.50;59.00;;;;;;5526482;26;20569;-64
2024/04/15 00:10:17;;;;;;;3.57;1.83;;;10.50;59.20;;;;;;5526890;26;20223;-65
2024/04/15 00:12:46;;;;;;;4.73;1.37;;;10.50;59.30;;;;;;5526372;26;20504;-64
2024/04/15 00:15:11;;;;;;;8.50;2.33;;;10.50;59.50;;;;;;5526838;26;20215;-64
2024/04/15 00:17:42;;;;;;;6.30;1.87;;;10.50;59.60;;;;;;5526531;26;20445;-64
2024/04/15 00:20:09;;;;;;;7.43;1.70;;;10.50;59.70;;;;;;5526196;26;20283;-64
2024/04/15 00:22:37;;;;;;;5.43;1.80;;;10.50;59.80;;;;;;5525767;26;20468;-64
2024/04/15 00:25:03;;;;;;;3.50;2.27;;;10.50;60.00;;;;;;5526181;26;20986;-64
2024/04/15 00:27:32;;;;;;;4.40;1.50;;;10.50;60.00;;;;;;5525878;26;20494;-63
2024/04/15 00:29:58;;;;;;;6.20;1.70;;;10.50;60.10;;;;;;5529508;26;20981;-65
2024/04/15 00:32:26;;;;;;;5.17;1.97;;;10.50;60.30;;;;;;5529469;26;20577;-64
2024/04/15 00:34:54;;;;;;;7.33;1.80;;;10.50;60.50;;;;;;5529808;26;20260;-65
2024/04/15 00:37:23;;;;;;;3.43;1.50;;;10.40;60.80;;;;;;5529394;26;20838;-64
2024/04/15 00:39:48;;;;;;;4.63;1.70;;;10.40;61.30;;;;;;5529374;26;20569;-64
2024/04/15 00:42:17;;;;;;;6.17;1.80;;;10.40;61.60;;;;;;5529611;26;20993;-63
2024/04/15 00:44:43;;;;;;;4.03;1.63;;;10.40;61.90;;;;;;5529276;26;20297;-63
2024/04/15 00:47:11;;;;;;;3.07;1.57;;;10.40;62.20;;;;;;5530052;26;20499;-64
2024/04/15 00:49:38;;;;;;;5.50;1.87;;;10.40;62.60;;;;;;5531252;26;20328;-64
2024/04/15 00:52:10;;;;;;;5.80;1.83;;;10.40;63.00;;;;;;5529466;26;21068;-64
2024/04/15 00:54:37;;;;;;;4.93;1.40;;;10.40;63.60;;;;;;5529194;26;20465;-64
2024/04/15 00:57:06;;;;;;;3.27;1.67;;;10.40;64.00;;;;;;5529483;26;20503;-64
2024/04/15 00:59:34;;;;;;;2.80;1.53;;;10.50;64.70;;;;;;5529575;26;21025;-64
2024/04/15 01:02:03;;;;;;;3.37;1.63;;;10.50;65.50;;;;;;5529183;26;20542;-65
2024/04/15 01:04:28;;;;;;;4.00;1.53;;;10.50;66.50;;;;;;5529212;26;20924;-65
2024/04/15 01:06:58;;;;;;;5.53;1.70;;;10.40;67.60;;;;;;5529249;26;20448;-64
2024/04/15 01:09:26;;;;;;;6.07;1.27;;;10.40;69.40;;;;;;5529104;26;20603;-63
2024/04/15 01:11:55;;;;;;;3.43;1.77;;;10.40;71.00;;;;;;5529237;26;20613;-65
2024/04/15 01:14:21;;;;;;;5.30;1.60;;;10.30;72.20;;;;;;5529290;26;20556;-64
2024/04/15 01:16:51;;;;;;;4.60;1.37;;;10.30;73.50;;;;;;5529229;26;20444;-64
2024/04/15 01:19:16;;;;;;;3.77;1.73;;;10.30;74.60;;;;;;5529150;26;20553;-64
2024/04/15 01:21:45;;;;;;;2.43;1.33;;;10.20;76.00;;;;;;5529202;26;20993;-64
2024/04/15 01:24:13;;;;;;;6.73;2.90;;;10.20;77.60;;;;;;5529074;26;20219;-64
2024/04/15 01:26:47;;;;;;;4.77;1.47;;;10.20;78.40;;;;;;5529474;26;20432;-63
2024/04/15 01:29:13;;;;;;;3.00;1.50;;;10.10;79.60;;;;;;5528954;26;20496;-63
2024/04/15 01:31:42;;;;;;;2.23;1.37;;;10.10;81.20;;;;;;5528962;26;20523;-63
2024/04/15 01:34:07;;;;;;;3.30;1.40;;;10.00;82.80;;;;;;5528781;26;20546;-63
2024/04/15 01:36:36;;;;;;;5.50;1.77;;;10.00;85.40;;;;;;5528292;26;20444;-63
2024/04/15 01:39:02;;;;;;;3.80;1.60;;;9.90;88.40;;;;;;5528661;26;20260;-63
2024/04/15 01:41:33;;;;;;;2.53;1.43;;;9.90;90.00;;;;;;5527562;26;20569;-64
2024/04/15 01:43:58;;;;;;;3.83;1.43;;;9.90;91.30;;;;;;5528508;26;20260;-63
2024/04/15 01:46:27;;;;;;;5.57;1.50;;;9.80;91.70;;;;;;5528325;26;20539;-65
2024/04/15 01:48:53;;;;;;;3.63;1.73;;;9.80;92.60;;;;;;5528433;26;20223;-63
2024/04/15 01:51:22;;;;;;;4.28;1.40;;;9.60;94.30;;;;;;5528095;26;21115;-65
2024/04/15 01:53:48;;;;;;;7.20;1.80;;;9.50;95.40;;;;;;5528485;26;20205;-66
2024/04/15 01:56:16;;;;;;;7.80;1.77;;;9.40;96.50;;;;;;5528523;26;20565;-65
2024/04/15 01:58:44;;;;;;;2.08;1.30;;;9.20;97.90;;;;;;5528763;26;20223;-65
2024/04/15 02:01:16;;;;;;;3.75;1.67;;;9.00;99.50;;;;;;5529693;26;20247;-66
2024/04/15 02:03:42;;;;;;;2.40;1.60;;;8.80;99.90;;;;;;5528505;26;20586;-66
2024/04/15 02:06:11;;;;;;;1.98;1.75;;;8.70;99.90;;;;;;5528390;26;20247;-65
2024/04/15 02:08:37;;;;;;;2.88;1.60;;;8.60;99.90;;;;;;5528134;26;20223;-65
2024/04/15 02:11:05;;;;;;;8.10;2.20;;;8.50;99.90;;;;;;5528019;26;20223;-65
2024/04/15 02:13:31;;;;;;;4.50;1.65;;;8.40;99.90;;;;;;5528031;26;20546;-65
2024/04/15 02:16:02;;;;;;;5.70;1.70;;;8.40;99.90;;;;;;5527891;26;20220;-65
2024/04/15 02:18:28;;;;;;;6.05;1.90;;;8.40;99.90;;;;;;5528159;26;20606;-66
2024/04/15 02:20:56;;;;;;;4.17;2.20;;;8.40;99.90;;;;;;5528148;26;20311;-65
2024/04/15 02:23:22;;;;;;;2.92;1.58;;;8.40;99.90;;;;;;5528161;26;20337;-67
2024/04/15 02:25:50;;;;;;;4.57;1.67;;;8.40;99.90;;;;;;5528195;26;20223;-64
2024/04/15 02:28:16;;;;;;;3.80;1.83;;;8.40;99.90;;;;;;5528249;26;20333;-65
2024/04/15 02:30:45;;;;;;;3.70;1.73;;;8.30;99.90;;;;;;5528072;26;20685;-65
2024/04/15 02:33:14;;;;;;;4.32;1.80;;;8.30;99.90;;;;;;5527671;26;20255;-65
2024/04/15 02:35:43;;;;;;;4.47;1.90;;;8.30;99.90;;;;;;5527540;26;20212;-65
2024/04/15 02:38:09;;;;;;;2.30;1.90;;;8.30;99.90;;;;;;5527805;26;20267;-65
2024/04/15 02:40:37;;;;;;;6.33;2.03;;;8.30;99.90;;;;;;5527641;26;20211;-65
2024/04/15 02:43:03;;;;;;;6.45;1.98;;;8.30;99.90;;;;;;5527547;26;20744;-66
2024/04/15 02:45:31;;;;;;;3.35;1.83;;;8.30;99.90;;;;;;5527725;26;20208;-65
2024/04/15 02:47:57;;;;;;;8.25;2.70;;;8.40;99.90;;;;;;5530787;26;20220;-65
2024/04/15 02:50:28;;;;;;;4.30;1.90;;;8.40;99.90;;;;;;5528853;26;20309;-66
2024/04/15 02:52:54;;;;;;;3.75;1.95;;;8.40;99.90;;;;;;5526001;26;20267;-65
2024/04/15 02:55:22;;;;;;;4.50;1.87;;;8.40;99.90;;;;;;5527714;26;20311;-65
2024/04/15 02:57:48;;;;;;;6.30;2.17;;;8.40;99.90;;;;;;5527655;26;20341;-66
2024/04/15 03:00:17;;;;;;;6.47;1.80;;;8.40;99.90;;;;;;5527793;26;20694;-65
2024/04/15 03:02:43;;;;;;;7.60;2.20;;;8.40;99.90;;;;;;5527526;26;20224;-65
2024/04/15 03:05:12;;;;;;;3.23;1.27;;;8.40;99.90;;;;;;5527234;26;20254;-65
2024/04/15 03:07:41;;;;;;;4.53;2.13;;;8.40;99.90;;;;;;5527289;26;20267;-66
2024/04/15 03:10:09;;;;;;;2.42;1.40;;;8.40;99.90;;;;;;5527374;26;20261;-65
2024/04/15 03:12:35;;;;;;;3.50;1.80;;;8.40;99.90;;;;;;5527447;26;20333;-65
2024/04/15 03:15:03;;;;;;;5.23;2.03;;;8.40;99.90;;;;;;5527196;26;20637;-66
2024/04/15 03:17:29;;;;;;;1.90;1.70;;;8.40;99.90;;;;;;5527046;26;20220;-65
2024/04/15 03:19:58;;;;;;;3.83;1.50;;;8.40;99.90;;;;;;5527062;26;20319;-66
2024/04/15 03:22:24;;;;;;;4.70;2.00;;;8.40;99.90;;;;;;5528620;26;20332;-66
2024/04/15 03:24:55;;;;;;;3.27;2.17;;;8.40;99.90;;;;;;5527853;26;20223;-66
2024/04/15 03:27:20;;;;;;;5.15;2.10;;;8.50;99.90;;;;;;5527109;26;20255;-65
2024/04/15 03:29:49;;;;;;;3.33;1.47;;;8.50;99.90;;;;;;5526824;26;20328;-66
2024/04/15 03:32:15;;;;;;;3.70;1.83;;;8.50;99.90;;;;;;5526969;26;20461;-65
2024/04/15 03:34:43;;;;;;;3.30;2.03;;;8.50;99.90;;;;;;5526879;26;20227;-65
2024/04/15 03:37:11;;;;;;;10.02;2.00;;;8.60;99.90;;;;;;5526714;26;20325;-66
2024/04/15 03:39:40;;;;;;;4.68;2.20;;;8.60;99.90;;;;;;5526931;26;20332;-65
2024/04/15 03:42:08;;;;;;;6.28;2.58;;;8.60;99.90;;;;;;5526862;26;20228;-65
2024/04/15 03:44:37;;;;;;;2.83;1.88;;;8.60;99.90;;;;;;5527100;26;20208;-66
2024/04/15 03:47:03;;;;;;;2.60;1.80;;;8.60;99.90;;;;;;5527071;26;20324;-65
2024/04/15 03:49:31;;;;;;;5.27;1.80;;;8.60;99.90;;;;;;5527134;26;20625;-65
2024/04/15 03:51:57;;;;;;;6.38;2.67;;;8.70;99.90;;;;;;5526973;26;20501;-65
2024/04/15 03:54:25;;;;;;;4.77;2.10;;;8.60;99.90;;;;;;5526703;26;20220;-65
2024/04/15 03:56:51;;;;;;;4.68;1.85;;;8.70;99.90;;;;;;5526283;26;20260;-66
2024/04/15 03:59:22;;;;;;;3.27;1.67;;;8.70;99.90;;;;;;5526488;26;20328;-65
2024/04/15 04:01:48;;;;;;;3.78;1.90;;;8.70;99.90;;;;;;5526509;26;20476;-66
2024/04/15 04:04:18;;;;;;;3.50;2.00;;;8.70;99.90;;;;;;5525935;26;20315;-66
2024/04/15 04:06:44;;;;;;;4.25;2.42;;;8.80;99.90;;;;;;5527174;26;20201;-66
2024/04/15 04:09:13;;;;;;;3.30;1.90;;;8.80;99.90;;;;;;5526807;26;20255;-65
2024/04/15 04:13:35;;;;;;;3.47;2.10;;;8.80;99.90;;;;;;5509453;25;20893;-65
2024/04/15 04:16:01;;;;;;;6.38;2.67;;;8.80;99.90;;;;;;5509661;25;20205;-65
2024/04/15 04:18:30;;;;;;;3.17;1.93;;;8.90;99.90;;;;;;5509451;25;20259;-66
2024/04/15 04:20:55;;;;;;;3.17;1.92;;;8.90;99.90;;;;;;5508460;25;20453;-66
2024/04/15 04:23:24;;;;;;;4.93;2.67;;;8.90;99.90;;;;;;5508318;25;20271;-65
2024/04/15 04:25:50;;;;;;;4.80;2.00;;;8.90;99.90;;;;;;5508152;25;20311;-66
2024/04/15 04:28:18;;;;;;;4.73;1.97;;;8.90;99.90;;;;;;5508701;25;20227;-64
2024/04/15 04:30:46;;;;;;;8.70;2.30;;;8.90;99.90;;;;;;5508259;25;20236;-65
2024/04/15 04:33:15;;;;;;;2.43;2.10;;;8.90;99.90;;;;;;5508027;25;20509;-65
2024/04/15 04:35:41;;;;;;;4.80;2.40;;;8.90;99.90;;;;;;5508004;25;20461;-65
2024/04/15 04:38:09;;;;;;;3.63;2.00;;;8.90;99.90;;;;;;5508224;25;20803;-66
2024/04/15 04:40:35;;;;;;;3.53;2.50;;;8.90;99.90;;;;;;5508466;25;20596;-66
2024/04/15 04:43:04;;;;;;;4.17;2.20;;;8.90;99.90;;;;;;5508336;25;20527;-68
2024/04/15 04:45:30;;;;;;;6.72;2.28;;;8.90;99.90;;;;;;5511128;25;20587;-65
2024/04/15 04:48:01;;;;;;;5.57;2.40;;;8.90;99.90;;;;;;5508919;25;20216;-67
2024/04/15 04:50:27;;;;;;;4.07;2.20;;;8.90;99.90;;;;;;5508647;25;20253;-66
2024/04/15 04:52:55;;;;;;;5.17;2.17;;;9.00;99.90;;;;;;5508088;25;20292;-66
2024/04/15 04:55:22;;;;;;;7.25;2.15;;;9.00;99.90;;;;;;5508408;25;20268;-66
2024/04/15 04:57:50;;;;;;;4.53;2.38;;;9.00;99.90;;;;;;5508176;25;20216;-65
2024/04/15 05:00:16;;;;;;;2.80;2.13;;;9.00;99.90;;;;;;5508252;25;20236;-65
2024/04/15 05:02:47;;;;;;;4.63;2.00;;;9.10;99.90;;;;;;5508050;25;20465;-64
2024/04/15 05:05:15;;;;;;;3.13;2.25;;;9.10;99.90;;;;;;5507870;25;20532;-65
2024/04/15 05:07:44;;;;;;;3.60;2.15;;;9.10;99.90;;;;;;5507956;25;20251;-66
2024/04/15 05:10:09;;;;;;;3.07;2.77;;;9.10;99.90;;;;;;5507728;25;20600;-64
2024/04/15 05:12:38;;;;;;;6.07;2.83;;;9.20;99.90;;;;;;5531592;25;20461;-66
2024/04/15 05:15:04;;;;;;;4.20;2.70;;;9.20;99.90;;;;;;5544944;25;20270;-66
2024/04/15 05:17:32;;;;;;;5.77;2.90;;;9.20;99.90;;;;;;5544723;25;20447;-65
2024/04/15 05:19:58;;;;;;;7.00;2.78;;;9.10;99.90;;;;;;5544928;25;20992;-65
2024/04/15 05:22:29;;;;;;;4.00;2.60;;;9.20;99.90;;;;;;5544906;25;20257;-66
2024/04/15 05:24:56;;;;;;;5.87;3.13;;;9.20;99.90;;;;;;5528991;25;20505;-66
2024/04/15 05:27:24;;;;;;;4.28;2.72;;;9.20;99.90;;;;;;5530344;26;20448;-66
2024/04/15 05:29:50;;;;;;;6.30;2.70;;;9.20;99.90;;;;;;5529855;26;20315;-66
2024/04/15 05:32:18;;;;;;;4.77;3.27;;;9.20;99.90;;;;;;5530321;26;20469;-65
2024/04/15 05:34:44;;;;;;;6.10;3.80;;;9.30;99.90;;;;;;5530261;26;20457;-65
2024/04/15 05:37:13;;;;;;;3.80;3.40;;;9.30;99.90;;;;;;5530455;26;20512;-66
2024/04/15 05:39:41;;;;;;;5.10;3.97;;;9.40;99.90;;;;;;5530212;26;20813;-65
2024/04/15 05:42:10;;;;;;;8.63;3.97;;;9.40;99.90;;;;;;5529649;26;20480;-65
2024/04/15 05:44:36;;;;;;;8.87;4.33;;;9.50;99.90;;;;;;5529535;26;20491;-66
2024/04/15 05:47:04;;;;;;;5.47;3.55;;;9.60;99.90;;;;;;5530108;26;20500;-66
2024/04/15 05:49:37;;;;;;;7.23;3.83;;;9.70;99.90;;;;;;5529497;26;20255;-66
2024/04/15 05:52:06;;;;;;;7.83;3.93;;;9.80;99.90;;;;;;5529257;26;20452;-67
2024/04/15 05:54:32;;;;;;;6.90;4.70;;;9.90;99.90;;;;;;5529477;26;20544;-64
2024/04/15 05:57:03;;;;;;;8.10;4.80;;;10.00;99.90;;;;;;5529959;26;21065;-66
2024/04/15 05:59:29;;;;;;;5.27;4.50;;;10.10;99.90;;;;;;5528767;26;20244;-66
2024/04/15 06:01:57;;;;;;;5.57;5.07;;;10.20;99.90;;;;;;5528240;26;20545;-66
2024/04/15 06:04:23;;;;;;;7.97;6.00;;;10.20;99.90;;;;;;5529087;26;20508;-64
2024/04/15 06:06:52;;;;;;;9.23;6.07;;;10.40;99.90;;;;;;5529457;26;20449;-66
2024/04/15 06:09:18;;;;;;;6.47;5.20;;;10.40;99.90;;;;;;5529071;26;20549;-66
2024/04/15 06:11:46;;;;;;;9.53;6.00;;;10.40;99.90;;;;;;5528164;26;20878;-65
2024/04/15 06:14:14;;;;;;;10.47;5.57;;;10.30;99.90;;;;;;5528513;26;20308;-66
2024/04/15 06:16:43;;;;;;;7.93;6.00;;;10.30;99.90;;;;;;5528058;26;20449;-65
2024/04/15 06:19:09;;;;;;;7.33;6.30;;;10.30;99.90;;;;;;5528316;26;20445;-66
2024/04/15 06:21:37;;;;;;;7.33;6.10;;;10.40;99.90;;;;;;5528277;26;20566;-65
2024/04/15 06:24:03;;;;;;;8.03;6.80;;;10.40;99.90;;;;;;5528449;26;20813;-65
2024/04/15 06:26:32;;;;;;;7.83;7.00;;;10.40;99.90;;;;;;5528811;26;20511;-65
2024/04/15 06:28:57;;;;;;;8.47;6.70;;;10.40;99.90;;;;;;5529462;26;20538;-66
2024/04/15 06:31:29;;;;;;;10.00;6.60;;;10.40;99.90;;;;;;5528551;26;20468;-65
2024/04/15 06:33:55;;;;;;;7.70;6.97;;;10.30;99.90;;;;;;5529678;26;20800;-66
2024/04/15 06:36:23;;;;;;;12.60;6.27;;;10.40;99.90;;;;;;5527715;25;20512;-66
2024/04/15 06:38:49;;;;;;;8.20;7.13;;;10.50;99.90;;;;;;5529192;26;20452;-66
2024/04/15 06:41:18;;;;;;;11.17;6.77;;;10.60;99.90;;;;;;5530032;26;20554;-67
2024/04/15 06:43:44;;;;;;;7.70;5.70;;;10.80;99.90;;;;;;5529111;26;20215;-66
2024/04/15 06:46:12;;;;;;;8.77;6.80;;;11.00;99.90;;;;;;5529222;26;20619;-66
2024/04/15 06:48:43;;;;;;;9.53;7.70;;;11.00;99.90;;;;;;5528987;26;20445;-65
2024/04/15 06:51:12;;;;;;;7.97;6.37;;;11.10;99.90;;;;;;5529002;26;20492;-66
2024/04/15 06:53:38;;;;;;;7.60;6.70;;;11.10;99.90;;;;;;5528513;26;20617;-65
2024/04/15 06:56:07;;;;;;;7.13;6.53;;;11.10;99.90;;;;;;5528236;26;20445;-65
2024/04/15 06:58:33;;;;;;;7.90;6.77;;;11.10;99.90;;;;;;5528572;26;20852;-64
2024/04/15 07:01:02;;;;;;;7.83;6.73;;;11.10;99.90;;;;;;5527900;26;20441;-67
2024/04/15 07:03:27;;;;;;;10.77;7.90;;;11.20;99.90;;;;;;5527596;26;20831;-66
2024/04/15 07:05:58;;;;;;;10.37;6.73;;;11.30;99.90;;;;;;5528320;26;20456;-66
2024/04/15 07:08:25;;;;;;;8.37;7.50;;;11.30;99.90;;;;;;5528315;26;20219;-66
2024/04/15 07:10:54;;;;;;;11.10;8.33;;;11.40;99.90;;;;;;5528986;26;20483;-64
2024/04/15 07:13:20;;;;;;;8.17;7.10;;;11.40;99.90;;;;;;5527606;26;20513;-65
2024/04/15 07:15:48;;;;;;;7.83;7.13;;;11.30;99.90;;;;;;5527932;26;20500;-65
2024/04/15 07:18:14;;;;;;;8.77;7.17;;;11.40;99.90;;;;;;5527119;26;20316;-65
2024/04/15 07:20:43;;;;;;;12.77;7.43;;;11.50;99.90;;;;;;5527551;26;20460;-65
2024/04/15 07:23:11;;;;;;;9.23;8.30;;;11.50;99.90;;;;;;5527209;26;20509;-65
2024/04/15 07:25:40;;;;;;;10.27;7.50;;;11.50;99.90;;;;;;5527389;26;20528;-66
2024/04/15 07:28:05;;;;;;;7.33;6.63;;;11.60;99.90;;;;;;5527439;26;21005;-65
2024/04/15 07:30:34;;;;;;;8.13;7.10;;;11.70;99.90;;;;;;5529762;26;20429;-66
2024/04/15 07:33:00;;;;;;;12.07;8.67;;;11.70;99.90;;;;;;5526645;26;20220;-66
2024/04/15 07:35:30;;;;;;;9.10;8.20;;;11.80;99.90;;;;;;5527367;26;20562;-66
2024/04/15 07:37:56;;;;;;;8.60;7.43;;;11.90;99.90;;;;;;5527244;26;20243;-64
2024/04/15 07:40:27;;;;;;;12.23;8.30;;;11.90;99.90;;;;;;5526676;26;21041;-65
2024/04/15 07:42:55;;;;;;;18.10;9.20;;;11.90;99.90;;;;;;5527336;26;20220;-65
2024/04/15 07:45:23;;;;;;;10.27;8.67;;;11.90;99.90;;;;;;5526895;26;20449;-65
2024/04/15 07:47:49;;;;;;;9.00;8.13;;;11.90;99.90;;;;;;5526621;26;20560;-65
2024/04/15 07:50:18;;;;;;;14.00;8.73;;;11.90;99.90;;;;;;5526891;26;20452;-66
2024/04/15 07:52:44;;;;;;;8.10;7.27;;;12.10;99.90;;;;;;5526820;26;20328;-65
2024/04/15 07:55:12;;;;;;;11.20;8.10;;;12.20;99.90;;;;;;5526509;26;20452;-65
2024/04/15 07:57:40;;;;;;;10.17;7.83;;;12.40;99.90;;;;;;5526855;26;20216;-65
2024/04/15 08:00:10;;;;;;;8.83;7.10;;;12.60;99.90;;;;;;5527005;26;20492;-65
2024/04/15 08:02:36;;;;;;;9.77;6.97;;;12.70;99.90;;;;;;5526535;26;20859;-66
2024/04/15 08:05:05;;;;;;;11.70;6.47;;;12.80;99.80;;;;;;5526576;26;20460;-66
2024/04/15 08:07:31;;;;;;;7.90;6.47;;;12.90;99.10;;;;;;5526080;26;20759;-65
2024/04/15 08:10:00;;;;;;;6.87;5.77;;;13.00;98.00;;;;;;5526239;26;20449;-65
2024/04/15 08:12:26;;;;;;;8.90;6.53;;;13.00;96.80;;;;;;5526296;26;20325;-64
2024/04/15 08:14:57;;;;;;;8.83;6.00;;;13.10;96.10;;;;;;5526536;26;20449;-66
2024/04/15 08:17:23;;;;;;;9.10;6.07;;;13.00;95.50;;;;;;5526321;26;20590;-66
2024/04/15 08:19:51;;;;;;;9.63;6.00;;;13.00;95.00;;;;;;5526058;26;20973;-65
2024/04/15 08:22:17;;;;;;;6.90;6.30;;;12.90;94.30;;;;;;5526014;26;20516;-65
2024/04/15 08:24:50;;;;;;;10.73;6.10;;;12.90;94.00;;;;;;5525988;26;20903;-64
2024/04/15 08:27:15;;;;;;;7.73;5.70;;;12.90;93.50;;;;;;5526002;26;20200;-64
2024/04/15 08:29:44;;;;;;;7.37;5.53;;;13.00;92.80;;;;;;5526393;26;20955;-65
2024/04/15 08:32:13;;;;;;;8.40;5.23;;;13.00;91.80;;;;;;5526255;26;20224;-65
2024/04/15 08:34:41;;;;;;;7.00;5.20;;;13.00;91.00;;;;;;5526546;26;20448;-66
2024/04/15 08:37:07;;;;;;;11.03;5.70;;;13.10;90.00;;;;;;5525910;26;20561;-65
2024/04/15 08:39:37;;;;;;;8.80;5.67;;;13.10;87.10;;;;;;5526264;26;20464;-64
2024/04/15 08:42:15;;;;;;;10.23;6.00;;;13.10;85.60;;;;;;5527112;26;20461;-65
2024/04/15 08:44:44;;;;;;;9.50;7.00;;;13.20;84.20;;;;;;5526067;26;20545;-65
2024/04/15 08:47:22;;;;;;;9.70;7.40;;;13.30;82.40;;;;;;5525271;26;20993;-65
2024/04/15 08:49:51;;;;;;;9.93;7.47;;;13.30;80.40;;;;;;5525494;26;20522;-65
2024/04/15 08:52:17;;;;;;;10.27;8.03;;;13.20;80.20;;;;;;5525501;26;20903;-65
2024/04/15 08:54:46;;;;;;;10.17;9.10;;;13.20;79.50;;;;;;5525732;26;20445;-65
2024/04/15 08:57:13;;;;;;;10.87;9.23;;;13.20;79.10;;;;;;5525611;26;20570;-65
2024/04/15 08:59:44;;;;;;;11.80;9.77;;;13.30;79.00;;;;;;5528530;26;20573;-65
2024/04/15 09:02:15;;;;;;;13.03;10.23;;;13.30;78.30;;;;;;5529334;26;20913;-66
2024/04/15 09:04:43;;;;;;;12.77;9.40;;;13.40;78.10;;;;;;5529166;26;20893;-66
2024/04/15 09:07:09;;;;;;;9.80;8.80;;;13.50;77.60;;;;;;5529322;26;20460;-65
2024/04/15 09:09:38;;;;;;;15.13;10.10;;;13.60;77.10;;;;;;5529826;26;20493;-68
2024/04/15 09:12:05;;;;;;;12.37;9.67;;;13.60;76.40;;;;;;5529256;26;20472;-66
2024/04/15 09:14:33;;;;;;;10.80;9.77;;;13.60;76.20;;;;;;5528908;26;20508;-65
2024/04/15 09:16:59;;;;;;;10.97;9.87;;;13.50;75.80;;;;;;5529654;26;20504;-66
2024/04/15 09:19:31;;;;;;;11.90;9.27;;;13.50;76.10;;;;;;5529035;26;20451;-64
2024/04/15 09:22:00;;;;;;;11.20;9.90;;;13.60;75.60;;;;;;5528745;26;20460;-64
2024/04/15 09:24:28;;;;;;;12.83;9.20;;;13.70;74.40;;;;;;5528345;26;20453;-65
2024/04/15 09:26:54;;;;;;;12.67;8.43;;;13.80;73.90;;;;;;5528647;26;20493;-66
2024/04/15 09:29:23;;;;;;;12.50;8.73;;;13.80;73.60;;;;;;5528990;26;20787;-65
2024/04/15 09:31:49;;;;;;;11.90;9.00;;;13.80;72.70;;;;;;5528661;26;20531;-65
2024/04/15 09:34:18;;;;;;;9.93;9.13;;;13.90;71.90;;;;;;5528988;26;20855;-66
2024/04/15 09:36:47;;;;;;;11.70;8.90;;;14.00;71.10;;;;;;5529700;26;20870;-64
2024/04/15 09:39:16;;;;;;;11.00;9.23;;;14.10;69.50;;;;;;5529612;26;20441;-65
2024/04/15 09:41:42;;;;;;;10.10;8.20;;;14.20;67.90;;;;;;5529114;26;20569;-65
2024/04/15 09:44:15;;;;;;;11.00;8.10;;;14.30;66.90;;;;;;5528876;26;20521;-65
2024/04/15 09:46:41;;;;;;;12.33;8.50;;;14.50;65.60;;;;;;5529029;26;21112;-65
2024/04/15 09:49:10;;;;;;;10.47;7.53;;;14.70;64.40;;;;;;5529263;26;20508;-65
2024/04/15 09:51:37;;;;;;;9.33;8.10;;;14.90;64.20;;;;;;5528454;26;20457;-64
2024/04/15 09:54:11;;;;;;;10.07;7.80;;;15.00;62.70;;;;;;5528494;26;21060;-64
2024/04/15 09:56:42;;;;;;;7.90;7.07;;;15.10;62.00;;;;;;5527509;26;20969;-65
2024/04/15 09:59:16;;;;;;;8.23;6.50;;;15.10;61.10;;;;;;5528199;26;20437;-64
2024/04/15 10:01:43;;;;;;;8.00;5.50;;;15.10;60.80;;;;;;5527832;26;20569;-64
2024/04/15 10:04:20;;;;;;;6.13;5.43;;;15.20;59.40;;;;;;5527809;26;20870;-66
2024/04/15 10:06:48;;;;;;;7.97;4.97;;;15.30;58.70;;;;;;5528556;26;20946;-65
2024/04/15 10:09:20;;;;;;;8.77;5.27;;;15.50;58.40;;;;;;5527923;26;20573;-65
2024/04/15 10:11:47;;;;;;;11.57;7.10;;;15.60;57.30;;;;;;5528028;26;20516;-65
2024/04/15 10:14:16;;;;;;;10.50;4.40;;;15.60;56.60;;;;;;5528278;26;20505;-64
2024/04/15 10:16:46;;;;;;;5.10;4.10;;;15.60;56.20;;;;;;5528034;26;20470;-65
2024/04/15 10:19:14;;;;;;;5.33;4.30;;;15.50;55.20;;;;;;5528460;26;20444;-66
2024/04/15 10:21:42;;;;;;;6.43;4.70;;;15.40;54.70;;;;;;5528096;26;20619;-64
2024/04/15 10:24:14;;;;;;;7.40;4.00;;;15.30;54.60;;;;;;5527445;26;20505;-64
2024/04/15 10:26:45;;;;;;;10.30;4.57;;;15.40;54.50;;;;;;5527511;26;20521;-65
2024/04/15 10:29:19;;;;;;;10.10;4.03;;;15.40;54.10;;;;;;5527110;26;20448;-65
2024/04/15 10:31:50;;;;;;;3.90;3.43;;;15.40;53.80;;;;;;5527426;26;20476;-66
2024/04/15 10:34:18;;;;;;;7.10;3.93;;;15.30;53.20;;;;;;5527698;26;20453;-65
2024/04/15 10:36:48;;;;;;;9.03;3.80;;;15.30;53.10;;;;;;5527311;26;20555;-65
2024/04/15 10:39:20;;;;;;;4.57;3.83;;;15.10;52.60;;;;;;5527762;26;20542;-67
2024/04/15 10:41:49;;;;;;;6.80;3.90;;;15.20;52.70;;;;;;5528628;26;20572;-66
2024/04/15 10:44:17;;;;;;;7.33;3.30;;;15.30;52.40;;;;;;5527579;26;20449;-65
2024/04/15 10:46:44;;;;;;;7.30;4.20;;;15.40;52.20;;;;;;5526987;26;20586;-67
2024/04/15 10:49:13;;;;;;;6.00;3.87;;;15.40;51.80;;;;;;5528164;26;21037;-66
2024/04/15 10:51:39;;;;;;;5.47;3.73;;;15.60;51.60;;;;;;5527403;26;21069;-66
2024/04/15 10:54:07;;;;;;;6.43;4.10;;;15.60;51.30;;;;;;5526732;26;20586;-65
2024/04/15 10:56:33;;;;;;;6.87;3.93;;;15.70;51.20;;;;;;5527001;26;20721;-65
2024/04/15 10:59:04;;;;;;;7.47;3.80;;;15.50;51.10;;;;;;5526760;26;20441;-65
2024/04/15 11:01:30;;;;;;;7.10;4.00;;;15.30;51.50;;;;;;5527239;26;20220;-65
2024/04/15 11:03:59;;;;;;;4.97;4.03;;;15.20;51.90;;;;;;5527211;26;20557;-65
2024/04/15 11:06:28;;;;;;;5.20;3.60;;;15.00;52.20;;;;;;5527330;26;20465;-63
2024/04/15 11:08:59;;;;;;;7.17;3.57;;;14.70;52.70;;;;;;5527354;26;20566;-65
2024/04/15 11:11:25;;;;;;;6.97;3.67;;;14.50;53.00;;;;;;5527043;26;20806;-66
2024/04/15 11:13:54;;;;;;;8.07;4.40;;;14.50;53.40;;;;;;5527684;26;20624;-66
2024/04/15 11:16:23;;;;;;;7.50;4.50;;;14.50;53.60;;;;;;5527303;26;20558;-65
2024/04/15 11:18:52;;;;;;;5.90;4.30;;;14.60;53.60;;;;;;5527582;26;20441;-67
2024/04/15 11:21:18;;;;;;;6.93;4.40;;;15.00;53.50;;;;;;5527842;26;20453;-66
2024/04/15 11:23:47;;;;;;;5.73;4.70;;;15.30;52.80;;;;;;5527307;26;21009;-66
2024/04/15 11:26:15;;;;;;;13.93;4.60;;;15.20;52.30;;;;;;5528095;26;20460;-66
2024/04/15 11:28:44;;;;;;;6.00;4.93;;;15.10;52.50;;;;;;5527169;26;20547;-65
2024/04/15 11:31:10;;;;;;;8.47;4.87;;;15.10;52.90;;;;;;5527255;26;20433;-66
2024/04/15 11:33:42;;;;;;;6.20;4.87;;;15.40;53.00;;;;;;5526689;26;20973;-65
2024/04/15 11:36:14;;;;;;;7.43;4.10;;;15.50;52.30;;;;;;5526939;26;20559;-66
2024/04/15 11:38:43;;;;;;;9.13;4.73;;;15.50;52.20;;;;;;5527349;26;20921;-66
2024/04/15 11:41:08;;;;;;;7.30;4.63;;;15.50;52.00;;;;;;5527048;26;20950;-65
2024/04/15 11:43:40;;;;;;;7.30;5.13;;;15.50;51.90;;;;;;5527365;26;20445;-65
2024/04/15 11:46:15;;;;;;;6.33;4.93;;;15.40;51.80;;;;;;5527252;26;20934;-64
2024/04/15 11:48:46;;;;;;;7.20;4.50;;;15.20;51.80;;;;;;5526737;26;20988;-66
2024/04/15 11:51:14;;;;;;;9.10;4.37;;;15.00;52.00;;;;;;5526686;26;20464;-65
2024/04/15 11:53:43;;;;;;;5.57;3.63;;;15.50;52.30;;;;;;5526813;26;21026;-66
2024/04/15 11:56:08;;;;;;;8.10;3.37;;;16.50;51.10;;;;;;5528090;26;20456;-65
2024/04/15 11:58:37;;;;;;;6.33;3.23;;;17.10;49.20;;;;;;5528508;26;20441;-65
2024/04/15 12:01:03;;;;;;;4.00;3.53;;;17.10;48.50;;;;;;5527692;26;20219;-65
2024/04/15 12:03:32;;;;;;;6.47;3.13;;;16.80;48.20;;;;;;5527458;26;20445;-65
2024/04/15 12:06:02;;;;;;;4.33;2.70;;;16.60;48.00;;;;;;5527790;26;20448;-66
2024/04/15 12:08:31;;;;;;;6.47;3.60;;;16.50;48.30;;;;;;5527874;26;20452;-65
2024/04/15 12:10:57;;;;;;;7.20;3.07;;;16.90;48.10;;;;;;5527815;26;20932;-67
2024/04/15 12:13:25;;;;;;;5.23;3.43;;;17.40;47.20;;;;;;5529442;26;20457;-66
2024/04/15 12:15:51;;;;;;;4.13;3.20;;;17.70;46.60;;;;;;5527613;26;20327;-65
2024/04/15 12:18:19;;;;;;;4.77;3.17;;;17.50;46.40;;;;;;5527686;26;20456;-65
2024/04/15 12:20:45;;;;;;;4.97;3.00;;;17.10;46.30;;;;;;5527443;26;20587;-66
2024/04/15 12:23:16;;;;;;;4.23;2.80;;;16.70;46.90;;;;;;5527652;26;20476;-65
2024/04/15 12:25:42;;;;;;;5.53;2.63;;;16.40;47.10;;;;;;5527197;26;20211;-65
2024/04/15 12:28:10;;;;;;;6.23;2.93;;;16.40;47.50;;;;;;5526690;26;20453;-65
2024/04/15 12:30:36;;;;;;;3.80;2.83;;;16.60;47.20;;;;;;5526382;26;20223;-65
2024/04/15 12:33:05;;;;;;;4.13;2.20;;;16.80;47.10;;;;;;5526914;26;20460;-67
2024/04/15 12:35:31;;;;;;;9.63;3.03;;;17.10;46.70;;;;;;5531323;26;20311;-68
2024/04/15 12:37:59;;;;;;;4.93;2.60;;;17.10;46.10;;;;;;5532081;26;20926;-66
2024/04/15 12:40:28;;;;;;;5.83;2.37;;;16.90;45.60;;;;;;5530760;26;20501;-63
2024/04/15 12:42:56;;;;;;;2.50;2.23;;;16.70;45.70;;;;;;5531403;26;20532;-65
2024/04/15 12:45:22;;;;;;;4.50;3.00;;;16.60;45.60;;;;;;5530988;26;20512;-66
2024/04/15 12:47:50;;;;;;;4.30;2.67;;;16.70;45.20;;;;;;5529770;26;20550;-65
2024/04/15 12:50:16;;;;;;;6.73;2.23;;;16.90;44.80;;;;;;5529694;26;20283;-65
2024/04/15 12:52:45;;;;;;;5.00;2.63;;;17.00;44.50;;;;;;5529134;26;20458;-64